»·PEaware :: N2600U KSAN-KVNY

N2600U :: KSAN-KVNY

FLIGHT INFORMATION

Flight Status: Arrived
Operator: Privately registered:
United States
More flights under this callsign
Pilot: Matthew F. (17981)
Aircraft: PILATUS PC-12 EAGLE
(PC12)
More flights by this aircraft type
Origin: KSAN San Diego Intl-Lindbergh
United States
Destination: KVNY Van Nuys
United States
More flights between these airports :: More routes between these airports
Route: +CWARD2 LAX CANOG
File this flight plan on PilotEdge
Remarks: TEC route SANP16R
Altitude:
(Current/Filed)
8,000ft
Speed:
(Current/Filed)
190kts
Departed: 09-Jan-19 07:42 PM
Arrived: 09-Jan-19 08:27 PM
Distance/Time
Traveled:
110nm/0:45
Distance/Time
To Go:
Arrived

Flight Plot

Page will automatically refresh every two minutes.

Flight plan parsing failed; only flown route is shown


Map Options




Map Legend


Flown Route
Filed Route
Departure Airport
Arrival Airport
Navaid (VOR, NDB)
Fix

Horizontal Profiles

Position Reports

Time Latitude Longitude Heading Altitude Ground
Speed
09-Jan-19 19:25 32.732391 -117.177887 194 19ft 0kts
09-Jan-19 19:26 32.732391 -117.177887 194 19ft 0kts
09-Jan-19 19:27 32.732391 -117.177887 194 19ft 0kts
09-Jan-19 19:29 32.732391 -117.177887 0 19ft 0kts
09-Jan-19 19:30 32.732391 -117.177887 194 19ft 0kts
09-Jan-19 19:31 32.732391 -117.177887 194 19ft 0kts
09-Jan-19 19:32 32.732391 -117.177887 194 19ft 0kts
09-Jan-19 19:33 32.732391 -117.177887 194 19ft 0kts
09-Jan-19 19:34 32.732391 -117.177887 194 19ft 0kts
09-Jan-19 19:35 32.732391 -117.177887 194 19ft 0kts
09-Jan-19 19:36 32.732391 -117.177887 194 19ft 0kts
09-Jan-19 19:37 32.732391 -117.177887 194 19ft 0kts
09-Jan-19 19:38 32.732391 -117.177887 194 19ft 0kts
09-Jan-19 19:39 32.731538 -117.176795 130 22ft 10kts
09-Jan-19 19:40 32.730740 -117.175328 156 23ft 9kts
09-Jan-19 19:41 32.734058 -117.193943 284 276ft 114kts
09-Jan-19 19:43 32.748581 -117.228928 304 1828ft 136kts
09-Jan-19 19:44 32.767530 -117.262412 303 3730ft 138kts
09-Jan-19 19:45 32.786893 -117.297639 301 5807ft 142kts
09-Jan-19 19:46 32.807634 -117.333422 305 7840ft 147kts
09-Jan-19 19:47 32.827428 -117.362759 305 8461ft 159kts
09-Jan-19 19:48 32.857925 -117.410163 306 7973ft 211kts
09-Jan-19 19:49 32.890639 -117.460676 305 7969ft 207kts
09-Jan-19 19:50 32.922883 -117.510817 305 7967ft 206kts
09-Jan-19 19:51 32.955486 -117.561660 305 7964ft 210kts
09-Jan-19 19:52 32.988418 -117.613012 305 7962ft 212kts
09-Jan-19 19:53 33.021370 -117.664467 304 7964ft 212kts
09-Jan-19 19:54 33.054567 -117.716393 304 7964ft 212kts
09-Jan-19 19:55 33.094267 -117.761359 315 7982ft 213kts
09-Jan-19 19:56 33.133643 -117.801446 316 7982ft 213kts
09-Jan-19 19:57 33.170713 -117.839183 316 7984ft 212kts
09-Jan-19 19:58 33.216802 -117.867003 344 7991ft 217kts
09-Jan-19 19:59 33.271168 -117.881643 344 7993ft 216kts
09-Jan-19 20:00 33.322465 -117.902526 321 7996ft 205kts
09-Jan-19 20:01 33.358083 -117.934685 320 7694ft 148kts
09-Jan-19 20:02 33.387708 -117.960835 321 7309ft 141kts
09-Jan-19 20:02 33.418150 -117.987633 322 6973ft 201kts
09-Jan-19 20:04 33.471074 -118.032917 323 6450ft 226kts
09-Jan-19 20:05 33.518483 -118.073594 323 5990ft 227kts
09-Jan-19 20:05 33.557167 -118.106862 324 5597ft 225kts
09-Jan-19 20:06 33.604980 -118.148131 323 5141ft 232kts
09-Jan-19 20:08 33.659526 -118.195243 322 4994ft 219kts
09-Jan-19 20:08 33.696794 -118.227451 321 4995ft 211kts
09-Jan-19 20:09 33.739074 -118.264102 321 5004ft 206kts
09-Jan-19 20:10 33.781411 -118.300790 321 5007ft 203kts
09-Jan-19 20:11 33.821821 -118.335876 321 5005ft 201kts
09-Jan-19 20:12 33.863175 -118.371825 321 5003ft 200kts
09-Jan-19 20:13 33.903354 -118.406795 321 5000ft 199kts
09-Jan-19 20:14 33.944387 -118.438793 332 4997ft 195kts
09-Jan-19 20:15 33.987895 -118.463024 332 4996ft 182kts
09-Jan-19 20:16 34.029311 -118.486120 332 5015ft 176kts
09-Jan-19 20:17 34.069951 -118.508835 332 5015ft 174kts
09-Jan-19 20:18 34.109578 -118.530959 331 5015ft 174kts
09-Jan-19 20:19 34.149199 -118.549759 339 5016ft 175kts
09-Jan-19 20:20 34.194293 -118.561091 351 5043ft 171kts
09-Jan-19 20:21 34.232648 -118.562783 357 4582ft 141kts
09-Jan-19 20:22 34.260914 -118.543794 70 4022ft 145kts
09-Jan-19 20:23 34.266129 -118.506750 100 3027ft 118kts
09-Jan-19 20:24 34.241220 -118.493164 182 1890ft 120kts
09-Jan-19 20:25 34.213987 -118.490738 178 824ft 95kts
09-Jan-19 20:26 34.203977 -118.490643 217 806ft 7kts
09-Jan-19 20:27 34.202955 -118.491649 179 806ft 0kts

Navigation Log

Ident Type
Flight plan parsing failed, navigation log unavailable